Home > Products > Valid Products > TAF

000
FTUS41 KGYX 230923 AAA
TAFCON
TAF AMD
KCON 230923Z 2309/2406 VRB03KT P6SM SCT025 BKN090
     FM231500 05010KT P6SM OVC050
     FM231800 09009KT P6SM BKN050 OVC100=



000
FTUS41 KGYX 230923 AAA
TAFPSM
TAF AMD
KPSM 230923Z 2309/2406 02004KT P6SM SCT100 SCT250
     FM231700 10010KT P6SM BKN050 BKN100=



000
FTUS41 KGYX 230923 AAA
TAFAUG
TAF AMD
KAUG 230923Z 2309/2406 36006KT P6SM SCT035 BKN080
     FM231500 03009KT P6SM SCT025 OVC050
     FM232200 VRB03KT P6SM SCT250=



000
FTUS41 KGYX 230923 AAA
TAFPWM
TAF AMD
KPWM 230923Z 2309/2406 VRB04KT P6SM SCT035 OVC080
     FM231300 04011KT P6SM SCT030 SCT100
     FM231800 11009KT P6SM BKN050=



000
FTUS41 KGYX 230923 AAA
TAFLEB
TAF AMD
KLEB 230923Z 2309/2406 VRB03KT 3SM BR OVC001
     FM231000 00000KT 1SM BR OVC001
     FM231400 VRB03KT P6SM BKN050 OVC100=



000
FTUS41 KGYX 230520
TAFPWM
TAF
KPWM 230520Z 2306/2406 VRB04KT P6SM FEW100
     FM231300 05010KT P6SM SCT030 SCT100
     FM231800 11009KT P6SM BKN050=



000
FTUS41 KGYX 230520
TAFPSM
TAF
KPSM 230520Z 2306/2406 02004KT P6SM SCT050 OVC080
     FM231700 10010KT P6SM BKN050 BKN100=



000
FTUS41 KGYX 230520
TAFAUG
TAF
KAUG 230520Z 2306/2406 VRB03KT P6SM BKN035 BKN080
     FM230800 VRB03KT 5SM BR FEW025 SCT050 SCT100
     FM231200 02009KT P6SM SCT025 OVC050=



000
FTUS41 KGYX 230520
TAFLEB
TAF
KLEB 230520Z 2306/2406 VRB03KT 4SM BR BKN001 BKN035
     FM230800 00000KT 1SM BR OVC001
     FM231300 VRB03KT P6SM BKN050 OVC100=



000
FTUS41 KGYX 230520
TAFCON
TAF
KCON 230520Z 2306/2406 VRB03KT P6SM SCT025 BKN080
     FM230800 VRB03KT P6SM OVC025
     FM231500 05006KT P6SM OVC050=



000
FTUS41 KGYX 230415 AAA
TAFLEB
TAF AMD
KLEB 230415Z 2304/2324 VRB03KT 4SM BR BKN001 BKN035
     FM230800 00000KT 1SM BR OVC001
     FM231300 VRB03KT P6SM BKN050 OVC100=



000
FTUS41 KGYX 222322
TAFPWM
TAF
KPWM 222322Z 2300/2324 08005KT P6SM BKN050 BKN100
     FM230300 VRB03KT P6SM SCT050 SCT100=



000
FTUS41 KGYX 222322
TAFPSM
TAF
KPSM 222322Z 2300/2324 08005KT P6SM BKN050
     FM230400 VRB03KT P6SM SCT050 SCT100=



000
FTUS41 KGYX 222322
TAFAUG
TAF
KAUG 222322Z 2300/2324 VRB03KT P6SM BKN050
     FM230300 VRB03KT P6SM SCT050 SCT100=



000
FTUS41 KGYX 222322
TAFLEB
TAF
KLEB 222322Z 2300/2324 VRB03KT P6SM BKN050 BKN100=



000
FTUS41 KGYX 222322
TAFCON
TAF
KCON 222322Z 2300/2324 VRB03KT P6SM SCT025 BKN080
     FM230600 VRB03KT P6SM SCT050 SCT100=



000
FTUS41 KGYX 222141 AAC
TAFLEB
TAF AMD
KLEB 222141Z 2222/2318 VRB03KT P6SM -SHRA SCT015 OVC050
      TEMPO 2222/2224 2SM -SHRA OVC003
     FM230000 VRB03KT P6SM SCT015 BKN080
      TEMPO 2308/2312 2SM BR SCT002=



000
FTUS41 KGYX 221927 AAB
TAFLEB
TAF AMD
KLEB 221927Z 2219/2318 VRB03KT P6SM -SHRA SCT015 OVC050
      TEMPO 2219/2221 3SM -SHRA SCT005 BKN025
     FM222200 VRB03KT P6SM SCT015 BKN080
      TEMPO 2308/2312 2SM BR SCT002=



000
FTUS41 KGYX 221819 AAA
TAFLEB
TAF AMD
KLEB 221819Z 2218/2318 VRB03KT P6SM -SHRA SCT015 OVC050
     FM222200 VRB03KT P6SM SCT015 BKN080
      TEMPO 2308/2312 2SM BR SCT002=



000
FTUS41 KGYX 221805 AAA
TAFPSM
TAF AMD
KPSM 221805Z 2218/2318 06008KT P6SM BKN020 OVC040
     FM222300 VRB03KT P6SM SCT050 BKN100=



000
FTUS41 KGYX 221720
TAFAUG
TAF
KAUG 221720Z 2218/2318 08006KT P6SM SCT025 BKN080
     FM222200 VRB03KT P6SM SCT050 BKN100
      TEMPO 2308/2312 3SM BR SCT002=



000
FTUS41 KGYX 221720
TAFLEB
TAF
KLEB 221720Z 2218/2318 VRB03KT P6SM -SHRA OVC015
     FM222200 VRB03KT P6SM SCT015 BKN080
      TEMPO 2308/2312 2SM BR SCT002=



000
FTUS41 KGYX 221720
TAFCON
TAF
KCON 221720Z 2218/2318 10005KT P6SM BKN025
     FM221900 12005KT P6SM -SHRA BKN025 OVC080
     FM222200 VRB03KT P6SM SCT025 BKN100
      TEMPO 2309/2312 3SM BR SCT002=



000
FTUS41 KGYX 221720
TAFPSM
TAF
KPSM 221720Z 2218/2318 06008KT P6SM SCT040 BKN080
     FM222300 VRB03KT P6SM SCT050 BKN100=



000
FTUS41 KGYX 221720
TAFPWM
TAF
KPWM 221720Z 2218/2318 10008KT P6SM BKN045
     FM222300 VRB03KT P6SM SCT050 BKN100=



000
FTUS41 KGYX 221521 AAC
TAFLEB
TAF AMD
KLEB 221521Z 2215/2312 36003KT P6SM SCT006 OVC025
     FM222200 VRB03KT P6SM SCT050 BKN100=



000
FTUS41 KGYX 221504 AAB
TAFLEB
TAF AMD
KLEB 221504Z 2215/2312 36003KT 5SM BR BKN006 OVC025
     FM221700 VRB03KT P6SM BKN025
     FM222200 VRB03KT P6SM SCT050 BKN100=



000
FTUS41 KGYX 221425 AAA
TAFLEB
TAF AMD
KLEB 221425Z 2214/2312 VRB03KT 5SM BR SCT005 OVC040
      TEMPO 2214/2215 2SM BR BKN004 OVC035
     FM221500 VRB03KT P6SM BKN025
     FM222200 VRB03KT P6SM SCT050 BKN100=



000
FTUS41 KGYX 221412 AAA
TAFCON
TAF AMD
KCON 221412Z 2214/2312 04005KT P6SM BKN008 OVC045
     FM221500 06005KT P6SM SCT008 BKN045
     FM222200 VRB03KT P6SM SCT050 BKN100=



000
FTUS41 KGYX 221303 AAA
TAFPSM
TAF AMD
KPSM 221303Z 2213/2312 04006KT P6SM VCSH SCT005 BKN010 OVC120
     FM221400 05005KT P6SM OVC030=



000
FTUS41 KGYX 221120
TAFLEB
TAF
KLEB 221120Z 2212/2312 VRB03KT 5SM -SHRA BR OVC040
      TEMPO 2212/2213 2SM SHRA OVC015
     FM221400 VRB03KT P6SM BKN025
     FM222200 VRB03KT P6SM SCT050 BKN100=



000
FTUS41 KGYX 221120
TAFPWM
TAF
KPWM 221120Z 2212/2312 06006KT P6SM BKN045 BKN100
     FM221600 VRB05KT P6SM OVC030
     FM222200 VRB03KT P6SM SCT050 BKN100=



000
FTUS41 KGYX 221120
TAFAUG
TAF
KAUG 221120Z 2212/2312 06004KT P6SM BKN045 BKN100
     FM221600 VRB05KT P6SM OVC050
     FM222200 VRB03KT P6SM SCT050 BKN100=



000
FTUS41 KGYX 221120
TAFCON
TAF
KCON 221120Z 2212/2312 VRB03KT 5SM -SHRA BR OVC045
     FM221400 06005KT P6SM BKN045
     FM222200 VRB03KT P6SM SCT050 BKN100=



000
FTUS41 KGYX 221120
TAFPSM
TAF
KPSM 221120Z 2212/2312 VRB03KT 5SM -SHRA OVC005
      TEMPO 2212/2214 1 1/2SM BR
     FM221400 05005KT P6SM OVC030=



000
FTUS41 KGYX 221111 AAC
TAFLEB
TAF AMD
KLEB 221111Z 2211/2306 VRB03KT 5SM -SHRA BR OVC030
      TEMPO 2211/2213 1SM SHRA OVC015
     FM221400 VRB03KT P6SM BKN025=



000
FTUS41 KGYX 221045 AAB
TAFLEB
TAF AMD
KLEB 221045Z 2211/2306 VRB03KT 5SM -SHRA BR OVC025
      TEMPO 2211/2213 2SM SHRA OVC015
     FM221400 VRB03KT P6SM BKN025=



000
FTUS41 KGYX 220955 AAC
TAFPWM
TAF AMD
KPWM 220955Z 2210/2306 07004KT P6SM BKN012 BKN100
     FM221200 06006KT P6SM OVC045
     FM221600 VRB05KT P6SM OVC050=



000
FTUS41 KGYX 220906 AAA
TAFPSM
TAF AMD
KPSM 220906Z 2209/2306 VRB03KT 5SM -SHRA OVC005
      TEMPO 2209/2212 2SM -SHRA OVC020
     FM221400 05005KT P6SM OVC045=



000
FTUS41 KGYX 220906 AAB
TAFPWM
TAF AMD
KPWM 220906Z 2209/2306 07004KT P6SM BKN005 BKN100
     FM221000 06006KT P6SM OVC045
     FM221600 VRB05KT P6SM OVC050=



000
FTUS41 KGYX 220906 AAA
TAFCON
TAF AMD
KCON 220906Z 2209/2306 VRB03KT 5SM -SHRA BR OVC025
      TEMPO 2209/2210 2SM SHRA OVC012
     FM221400 06005KT P6SM BKN045=



000
FTUS41 KGYX 220906 AAA
TAFLEB
TAF AMD
KLEB 220906Z 2209/2306 VRB03KT 5SM -SHRA BR OVC020
      TEMPO 2209/2210 2SM SHRA OVC015
     FM221400 VRB03KT P6SM BKN025=



000
FTUS41 KGYX 220906 AAB
TAFAUG
TAF AMD
KAUG 220906Z 2209/2306 09004KT P6SM BKN050 BKN100
     FM221200 06006KT P6SM OVC020
     FM221600 VRB05KT P6SM OVC050=



000
FTUS41 KGYX 220733 AAA
TAFAUG
TAF AMD
KAUG 220733Z 2208/2306 09004KT P6SM BKN050 BKN100
     FM221200 06006KT P6SM OVC020
     FM221600 VRB05KT P6SM OVC050=



000
FTUS41 KGYX 220644 AAA
TAFPWM
TAF AMD
KPWM 220644Z 2207/2306 07004KT P6SM BKN008 BKN100
     FM221000 06006KT P6SM OVC045
     FM221600 VRB05KT P6SM OVC050=



000
FTUS41 KGYX 220530
TAFPWM
TAF
KPWM 220530Z 2206/2306 VRB03KT P6SM BKN100
     FM220900 06006KT P6SM OVC045
     FM221600 VRB05KT P6SM OVC050=



000
FTUS41 KGYX 220530
TAFCON
TAF
KCON 220530Z 2206/2306 VRB03KT 5SM -SHRA BR OVC025
      TEMPO 2206/2210 2SM SHRA OVC012
     FM221400 06005KT P6SM BKN045=



000
FTUS41 KGYX 220530
TAFPSM
TAF
KPSM 220530Z 2206/2306 VRB03KT 5SM -SHRA OVC045
      TEMPO 2206/2210 2SM -SHRA OVC020
     FM221400 05005KT P6SM OVC045=



000
FTUS41 KGYX 220530
TAFLEB
TAF
KLEB 220530Z 2206/2306 VRB03KT 5SM -SHRA BR OVC020
      TEMPO 2206/2210 2SM SHRA OVC015
     FM221400 VRB03KT P6SM BKN025=



000
FTUS41 KGYX 220530
TAFAUG
TAF
KAUG 220530Z 2206/2306 09004KT P6SM OVC007
     FM221200 06006KT P6SM OVC020
     FM221600 VRB05KT P6SM OVC050=



000
FTUS41 KGYX 220439 AAA
TAFAUG
TAF AMD
KAUG 220439Z 2205/2224 VRB03KT P6SM BKN008 BKN100
     FM221200 06006KT P6SM OVC020
     FM221600 VRB05KT P6SM OVC050=



000
FTUS41 KGYX 212326
TAFLEB
TAF
KLEB 212326Z 2200/2224 VRB03KT 5SM -SHRA OVC040
      TEMPO 2200/2204 1 1/2SM +SHRA OVC015
     FM220600 VRB03KT 4SM -SHRA BR OVC015
     FM221450 06005KT P6SM BKN025=



000
FTUS41 KGYX 212326
TAFAUG
TAF
KAUG 212326Z 2200/2224 VRB03KT P6SM BKN100
     FM221200 06006KT P6SM OVC020
     FM221600 VRB05KT P6SM OVC050=



000
FTUS41 KGYX 212326
TAFCON
TAF
KCON 212326Z 2200/2224 VRB03KT 5SM -SHRA OVC040
      TEMPO 2200/2204 1 1/2SM +SHRA OVC015
     FM220600 VRB03KT 4SM -SHRA BR OVC015
     FM221450 06005KT P6SM BKN025=



000
FTUS41 KGYX 212326
TAFPWM
TAF
KPWM 212326Z 2200/2224 VRB03KT P6SM BKN100
     FM221200 06006KT P6SM OVC020
     FM221600 VRB05KT P6SM OVC050=



000
FTUS41 KGYX 212326
TAFPSM
TAF
KPSM 212326Z 2200/2224 10005KT 5SM -SHRA OVC040
      TEMPO 2200/2204 1 1/2SM +SHRA OVC015
     FM220400 VRB03KT 5SM -SHRA OVC020
     FM221400 05007KT P6SM OVC025=



000
FTUS41 KGYX 212248 AAA
TAFCON
TAF AMD
KCON 212248Z 2123/2218 VRB03KT 5SM -SHRA OVC040
      TEMPO 2123/2203 1 1/2SM +SHRA OVC015
     FM220600 VRB03KT P6SM -SHRA OVC015
     FM221500 06005KT P6SM BKN025=



000
FTUS41 KGYX 211743
TAFAUG
TAF
KAUG 211743Z 2118/2218 VRB03KT P6SM BKN120
     FM220800 VRB03KT 3SM BR BKN010
     FM221300 08005KT P6SM BKN025=



000
FTUS41 KGYX 211743
TAFCON
TAF
KCON 211743Z 2118/2218 VRB03KT P6SM -SHRA BKN100
     FM220600 VRB03KT P6SM -SHRA OVC015
     FM221500 06005KT P6SM BKN025=



000
FTUS41 KGYX 211743
TAFPWM
TAF
KPWM 211743Z 2118/2218 VRB03KT P6SM BKN100
      TEMPO 2210/2214 BKN020
     FM221400 09007KT P6SM BKN060=



000
FTUS41 KGYX 211743
TAFLEB
TAF
KLEB 211743Z 2118/2218 19004KT P6SM -SHRA OVC040
     FM220400 VRB03KT 4SM -SHRA BR OVC020
     FM220800 00000KT 1/2SM FG OVC002
     FM221400 16004KT 5SM BR BKN025=



000
FTUS41 KGYX 211743
TAFPSM
TAF
KPSM 211743Z 2118/2218 10005KT P6SM FEW020 BKN100
     FM220200 VRB03KT P6SM OVC040
     FM221000 05007KT P6SM OVC025=



000
FTUS41 KGYX 211121
TAFLEB
TAF
KLEB 211121Z 2112/2212 VRB03KT P6SM BKN040
     FM211400 13005KT P6SM VCSH BKN035=



000
FTUS41 KGYX 211121
TAFAUG
TAF
KAUG 211121Z 2112/2212 VRB03KT P6SM SCT250
     FM211400 11005KT P6SM BKN100=



000
FTUS41 KGYX 211121
TAFCON
TAF
KCON 211121Z 2112/2212 VRB03KT P6SM SCT200
     FM211400 12005KT P6SM VCSH BKN040=



000
FTUS41 KGYX 211121
TAFPWM
TAF
KPWM 211121Z 2112/2212 04004KT P6SM SCT100 OVC250
     FM211500 12005KT P6SM BKN100
     FM211900 18007KT P6SM BKN100=



000
FTUS41 KGYX 211121
TAFPSM
TAF
KPSM 211121Z 2112/2212 16004KT P6SM BKN200
     FM211300 12007KT P6SM OVC100=



000
FTUS41 KGYX 210917 AAA
TAFPSM
TAF AMD
KPSM 210917Z 2109/2206 16004KT P6SM BKN200
     FM211300 12007KT P6SM OVC100=



000
FTUS41 KGYX 210917 AAA
TAFAUG
TAF AMD
KAUG 210917Z 2109/2206 VRB03KT P6SM SCT250
      TEMPO 2109/2111 3SM BR
     FM211400 11005KT P6SM BKN100=



000
FTUS41 KGYX 210917 AAB
TAFCON
TAF AMD
KCON 210917Z 2109/2206 VRB03KT P6SM SCT200
      TEMPO 2109/2111 5SM BR
     FM211200 12005KT P6SM VCSH BKN040=



000
FTUS41 KGYX 210917 AAA
TAFPWM
TAF AMD
KPWM 210917Z 2109/2206 04004KT P6SM SCT100 OVC250
     FM211500 12005KT P6SM BKN100
     FM211900 18007KT P6SM OVC250=



000
FTUS41 KGYX 210917 AAA
TAFLEB
TAF AMD
KLEB 210917Z 2109/2206 VRB03KT P6SM BKN040
     FM211200 13005KT P6SM VCSH BKN035=



000
FTUS41 KGYX 210850 AAA
TAFCON
TAF AMD
KCON 210850Z 2109/2206 VRB03KT P6SM SCT200
      TEMPO 2109/2111 5SM BR
     FM211200 12005KT P6SM VCSH BKN040=



000
FTUS41 KGYX 210708 RRB
TAFAUG
TAF
KAUG 210708Z 2107/2206 VRB03KT P6SM SCT250
      TEMPO 2109/2111 3SM BR
     FM211400 11005KT P6SM BKN100=



000
FTUS41 KGYX 210708 RRB
TAFCON
TAF
KCON 210708Z 2107/2206 VRB03KT P6SM SCT200
      TEMPO 2108/2111 3SM BR BKN004
     FM211200 12005KT P6SM VCSH BKN040=



000
FTUS41 KGYX 210708 RRB
TAFPWM
TAF
KPWM 210708Z 2107/2206 04004KT P6SM SCT100 OVC250
     FM211500 12005KT P6SM BKN100
     FM211900 18007KT P6SM OVC250=



000
FTUS41 KGYX 210708 RRB
TAFLEB
TAF
KLEB 210708Z 2107/2206 VRB03KT P6SM BKN040
     FM211200 13005KT P6SM VCSH BKN035=



000
FTUS41 KGYX 210708 RRB
TAFPSM
TAF
KPSM 210708Z 2107/2206 16004KT P6SM BKN200
     FM211300 12007KT P6SM OVC100=



000
FTUS41 KGYX 210651 RRA
TAFAUG
TAF
KAUG 210651Z 2107/2206 VRB03KT P6SM SCT250
      TEMPO 2109/2111 3SM BR
     FM211400 11005KT P6SM BKN100=



000
FTUS41 KGYX 210651 RRA
TAFCON
TAF
KCON 210651Z 2107/2206 VRB03KT P6SM SCT200
      TEMPO 2108/2111 3SM BR BKN004
     FM211200 12005KT P6SM VCSH BKN040=



000
FTUS41 KGYX 210520
TAFPWM
TAF
KPWM 210520Z 2106/2206 04004KT P6SM SCT100 OVC250
     FM211500 12005KT P6SM BKN100
     FM211900 18007KT P6SM OVC250=



000
FTUS41 KGYX 210520
TAFLEB
TAF
KLEB 210520Z 2106/2206 VRB03KT P6SM BKN040
     FM211200 13005KT P6SM VCSH BKN035=



000
FTUS41 KGYX 210520
TAFPSM
TAF
KPSM 210520Z 2106/2206 16004KT P6SM BKN200
     FM211300 12007KT P6SM OVC100=



000
FTUS41 KGYX 201733
TAFAUG
TAF
KAUG 201733Z 2018/2118 VRB03KT P6SM FEW045
      TEMPO 2109/2111 3SM BR
     FM211400 11005KT P6SM SCT050=



000
FTUS41 KGYX 201733
TAFPSM
TAF
KPSM 201733Z 2018/2118 13007KT P6SM FEW040 BKN200
     FM202300 VRB03KT P6SM BKN200=



000
FTUS41 KGYX 201733
TAFPWM
TAF
KPWM 201733Z 2018/2118 12007KT P6SM FEW045
     FM210000 VRB03KT P6SM SCT200
     FM211300 12006KT P6SM SCT050 BKN200=



000
FTUS41 KGYX 201733
TAFLEB
TAF
KLEB 201733Z 2018/2118 VRB03KT P6SM SCT200
     FM210800 00000KT 1SM BR OVC001
     FM211400 17005KT P6SM BKN035=



000
FTUS41 KGYX 201733
TAFCON
TAF
KCON 201733Z 2018/2118 VRB03KT P6SM SCT200
      TEMPO 2108/2111 3SM BR BKN004
     FM211500 10005KT P6SM BKN080=



000
FTUS41 KGYX 201120
TAFLEB
TAF
KLEB 201120Z 2012/2112 00000KT 1/4SM FG OVC001
     FM201330 19004KT P6SM FEW250
     FM210900 00000KT 1/4SM FG OVC001=



000
FTUS41 KGYX 201120
TAFPWM
TAF
KPWM 201120Z 2012/2112 VRB03KT P6SM SKC
     FM201400 16008KT P6SM SKC=



000
FTUS41 KGYX 201120
TAFPSM
TAF
KPSM 201120Z 2012/2112 VRB03KT P6SM SKC
     FM201800 14008KT P6SM SKC=



000
FTUS41 KGYX 201120
TAFCON
TAF
KCON 201120Z 2012/2112 VRB03KT P6SM FEW250
     FM201800 18005KT P6SM SKC=



000
FTUS41 KGYX 201120
TAFAUG
TAF
KAUG 201120Z 2012/2112 VRB03KT P6SM SKC
     FM201700 17005KT P6SM SKC=



000
FTUS41 KGYX 201108 AAC
TAFCON
TAF AMD
KCON 201108Z 2011/2106 VRB03KT P6SM FEW250
     FM201800 18005KT P6SM SKC=



000
FTUS41 KGYX 201108 AAC
TAFLEB
TAF AMD
KLEB 201108Z 2011/2106 00000KT 1/4SM FG OVC001
     FM201330 19004KT P6SM FEW250=



000
FTUS41 KGYX 201107 AAD
TAFAUG
TAF AMD
KAUG 201107Z 2011/2106 VRB03KT P6SM SKC
      TEMPO 2011/2012 6SM BR BKN001
     FM201700 17005KT P6SM SKC=



000
FTUS41 KGYX 201022 AAC
TAFAUG
TAF AMD
KAUG 201022Z 2010/2106 VRB03KT P6SM SKC
      TEMPO 2010/2012 2SM BR SCT002
     FM201700 17005KT P6SM SKC=



000
FTUS41 KGYX 200945 AAB
TAFCON
TAF AMD
KCON 200945Z 2010/2106 VRB03KT P6SM FEW250
      TEMPO 2010/2012 2SM BR BKN002
     FM201800 18005KT P6SM SKC=



    US Dept of Commerce
    National Oceanic and Atmospheric Administration
    National Weather Service
    1325 East West Highway
    Silver Spring, MD 20910
    Page Author: NWS Internet Services Team
Disclaimer
Information Quality
Credits
Glossary
Privacy Policy
Freedom of Information Act (FOIA)
About Us
Career Opportunities